Aviation Digital Data Service (ADDS)

Output produced by TAFs form (1538 UTC 29 April 2017)
found at http://aviationweather.gov/adds/tafs/
 
KELP 291501Z 2915/3012 15010KT P6SM VCSH FEW024 BKN040 OVC100 
     FM291600 28015G25KT P6SM FEW060 BKN080 BKN120 
     FM300300 03010G17KT P6SM FEW040 SCT070 BKN180 
     FM300600 01006KT P6SM FEW100